KGFA

Details ICAO KGFA
Name Malmstrom LRRS
Region United States
Timezone America/Denver (UTC-6.0)
Plans Departing 1
Arriving 7
Stats Elevation 3,526 ft / 1,075 m (AMSL)
Location 47.504960° -111.188030°
Runways 1
Magnetic Variation 12.151° E
Sunrise 2018-05-24 11:39:11 UTC / 2018-05-24 05:39:11 Local
Sunset 2018-05-25 03:06:55 UTC / 2018-05-24 21:06:55 Local
Advertisement - Login to hide

Runways

ID Width Length Bearing (true) Bearing (mag) Surface Threshold Offset Overrun Length
03 200 ft / 61 m 11,511 ft / 3,509 m 46.99° 34.84° Asphalt 0 ft / 0 m 0 ft / 0 m
21 200 ft / 61 m 11,511 ft / 3,509 m 227.01° 214.86° Asphalt 0 ft / 0 m 0 ft / 0 m

Approach Navaids

Runway Type Ident Frequency Range Bearing (true) Bearing (mag) Slope Elevation
21 Localiser IIII 109.50 MHz 18 nm / 33 km 238.50° 226.35° - 3,526 ft / 1,075 m (AMSL)

Map

Weather


0- 5 10 15 20 25 30 35+ Temperature / ° C

Clouds and Precipitation
Forecast for 2018-05-24 12:00 UTC. Updated 4 hours ago

Ground ~20,000 ft ~40,000 ft Winds

METAR

KGFA 241458Z AUTO 24016KT 10SM CLR 18/10 A2987 RMK AO2 SLP109 T01840102 52007 $

TAF

Not found
Warning: Do not use this data for real-world aviation or navigation. No guarantee of current accuracy is given.